Time;durP1;ratioP1;P1;durP2;ratioP2;P2;SDS_P1;SDS_P2;PMS_P1;PMS_P2;Temp;Humidity;BMP_temperature;BMP_pressure;BME280_temperature;BME280_humidity;BME280_pressure;Samples;Min_cycle;Max_cycle;Signal;HPM_P1;HPM_P2
2022/01/29 00:01:12;;;;;;;19.25;5.38;;;7.80;99.90;;;;;;4933697;29;20039;-83
2022/01/29 00:03:37;;;;;;;23.02;5.35;;;9.60;99.90;;;;;;4933533;29;20055;-84
2022/01/29 00:06:04;;;;;;;17.85;4.15;;;7.40;99.90;;;;;;4927683;29;20044;-83
2022/01/29 00:08:30;;;;;;;21.73;4.55;;;9.10;99.90;;;;;;4916163;29;20048;-84
2022/01/29 00:11:02;;;;;;;22.38;4.13;;;9.30;99.90;;;;;;4922582;29;20578;-83
2022/01/29 00:13:28;;;;;;;15.25;4.93;;;9.20;99.90;;;;;;4920014;29;20123;-83
2022/01/29 00:15:54;;;;;;;15.70;3.78;;;8.00;99.90;;;;;;4914629;29;20605;-83
2022/01/29 00:18:19;;;;;;;27.42;5.55;;;9.40;99.90;;;;;;4914417;29;20378;-84
2022/01/29 00:20:45;;;;;;;24.27;4.85;;;7.80;99.90;;;;;;4914552;29;20087;-84
2022/01/29 00:23:11;;;;;;;22.02;4.68;;;9.50;99.90;;;;;;4923867;29;20142;-83
2022/01/29 00:25:36;;;;;;;20.70;4.65;;;7.60;99.90;;;;;;4933471;29;20047;-83
2022/01/29 00:28:02;;;;;;;21.67;5.05;;;9.70;99.90;;;;;;4921413;29;20063;-83
2022/01/29 00:30:41;;;;;;;21.00;4.53;;;7.60;99.90;;;;;;4919876;29;20071;-84
2022/01/29 00:33:07;;;;;;;21.95;5.10;;;9.80;99.90;;;;;;4924908;29;20052;-83
2022/01/29 00:35:33;;;;;;;35.20;5.60;;;8.90;99.90;;;;;;4914405;29;20060;-84
2022/01/29 00:37:58;;;;;;;22.17;4.85;;;9.50;99.90;;;;;;4927373;29;20040;-83
2022/01/29 00:40:24;;;;;;;18.13;3.67;;;8.20;99.90;;;;;;4913059;29;20044;-83
2022/01/29 00:42:50;;;;;;;22.60;4.75;;;7.60;99.90;;;;;;4907360;29;20080;-84
2022/01/29 00:45:16;;;;;;;23.08;5.22;;;7.80;99.90;;;;;;4914556;29;20495;-83
2022/01/29 00:47:42;;;;;;;25.95;5.30;;;8.20;99.90;;;;;;4898772;29;20127;-83
2022/01/29 00:50:10;;;;;;;19.90;4.63;;;10.20;99.90;;;;;;4903990;29;20131;-83
2022/01/29 00:52:36;;;;;;;26.00;6.82;;;8.40;99.90;;;;;;4926955;29;20032;-83
2022/01/29 00:55:02;;;;;;;39.45;6.90;;;9.80;99.90;;;;;;4905459;29;20400;-84
2022/01/29 00:57:30;;;;;;;23.30;4.78;;;8.20;99.90;;;;;;4905402;29;20043;-83
2022/01/29 00:59:56;;;;;;;28.30;5.75;;;9.50;99.90;;;;;;4901964;29;20048;-83
2022/01/29 01:02:22;;;;;;;29.50;5.80;;;9.40;99.90;;;;;;4903699;29;20066;-83
2022/01/29 01:04:48;;;;;;;34.42;5.90;;;8.40;99.90;;;;;;4930519;29;20530;-83
2022/01/29 01:07:13;;;;;;;24.98;4.70;;;7.90;99.90;;;;;;4913468;29;20064;-83
2022/01/29 01:09:39;;;;;;;30.50;5.85;;;7.70;99.90;;;;;;4921558;29;20072;-83
2022/01/29 01:12:06;;;;;;;29.85;5.35;;;9.80;99.90;;;;;;4887437;29;20040;-83
2022/01/29 01:14:32;;;;;;;23.85;6.10;;;7.90;99.90;;;;;;4920839;29;20455;-83
2022/01/29 01:16:57;;;;;;;35.83;6.32;;;8.60;99.90;;;;;;4922169;29;20044;-83
2022/01/29 01:19:25;;;;;;;28.60;6.32;;;9.40;99.90;;;;;;4920626;29;20052;-83
2022/01/29 01:21:54;;;;;;;29.58;5.88;;;8.70;99.90;;;;;;4920417;29;20055;-83
2022/01/29 01:24:20;;;;;;;31.50;5.93;;;7.90;99.90;;;;;;4902997;29;20051;-83
2022/01/29 01:26:46;;;;;;;40.72;7.78;;;7.90;99.90;;;;;;4927980;29;20043;-84
2022/01/29 01:29:11;;;;;;;35.45;7.07;;;9.70;99.90;;;;;;4920299;29;20149;-83
2022/01/29 01:31:38;;;;;;;25.58;6.35;;;9.00;99.90;;;;;;4920430;29;20071;-84
2022/01/29 01:34:05;;;;;;;26.90;6.47;;;10.10;99.90;;;;;;4914350;23;20139;-84
2022/01/29 01:36:34;;;;;;;29.60;6.10;;;11.00;99.90;;;;;;4898246;29;20148;-84
2022/01/29 01:39:05;;;;;;;30.20;6.57;;;10.00;99.90;;;;;;4896033;29;20084;-84
2022/01/29 01:41:37;;;;;;;34.17;7.93;;;7.80;99.90;;;;;;4893780;29;20048;-84
2022/01/29 01:44:04;;;;;;;30.27;7.15;;;9.80;99.90;;;;;;4893665;29;20490;-84
2022/01/29 01:46:29;;;;;;;36.78;7.63;;;8.30;99.90;;;;;;4896652;29;20051;-85
2022/01/29 01:48:57;;;;;;;31.08;7.80;;;9.20;99.90;;;;;;4880632;29;20119;-84
2022/01/29 01:51:24;;;;;;;32.53;6.38;;;8.10;99.90;;;;;;4896398;29;20045;-84
2022/01/29 01:53:49;;;;;;;32.85;6.22;;;10.10;99.90;;;;;;4895850;29;20040;-85
2022/01/29 01:56:15;;;;;;;35.97;7.18;;;9.50;99.90;;;;;;4896249;29;20052;-84
2022/01/29 01:58:41;;;;;;;36.88;7.40;;;9.30;99.90;;;;;;4879847;29;20045;-85
2022/01/29 02:01:07;;;;;;;34.55;7.43;;;9.80;99.90;;;;;;4894495;29;20120;-84
2022/01/29 02:03:33;;;;;;;33.38;7.40;;;10.20;99.90;;;;;;4895167;29;20048;-84
2022/01/29 02:05:59;;;;;;;30.17;6.25;;;8.70;99.90;;;;;;4880634;29;20053;-84
2022/01/29 02:08:25;;;;;;;34.72;7.68;;;9.70;99.90;;;;;;4877391;29;20128;-84
2022/01/29 02:10:51;;;;;;;41.20;7.55;;;9.80;99.90;;;;;;4880302;29;20115;-84
2022/01/29 02:13:17;;;;;;;37.03;6.72;;;9.50;99.90;;;;;;4895069;29;20040;-84
2022/01/29 02:15:43;;;;;;;30.27;6.75;;;10.50;99.90;;;;;;4895724;29;20049;-84
2022/01/29 02:18:14;;;;;;;28.38;5.97;;;9.30;99.90;;;;;;4895800;29;20059;-84
2022/01/29 02:20:40;;;;;;;41.88;7.45;;;8.50;99.90;;;;;;4895035;29;20085;-84
2022/01/29 02:23:06;;;;;;;42.97;7.63;;;8.20;99.90;;;;;;4892514;29;20417;-84
2022/01/29 02:25:36;;;;;;;31.05;7.13;;;8.80;99.90;;;;;;4875934;29;20116;-85
2022/01/29 02:28:07;;;;;;;43.25;8.07;;;8.10;99.90;;;;;;4895638;29;20406;-85
2022/01/29 02:30:34;;;;;;;35.40;7.82;;;8.30;99.90;;;;;;4892439;29;20060;-84
2022/01/29 02:33:05;;;;;;;32.03;6.80;;;8.20;99.90;;;;;;4895262;29;20040;-85
2022/01/29 02:35:31;;;;;;;28.33;6.97;;;7.80;99.90;;;;;;4897417;29;20098;-85
2022/01/29 02:37:57;;;;;;;30.88;7.53;;;9.00;99.90;;;;;;4896942;29;20123;-85
2022/01/29 02:40:23;;;;;;;38.92;8.15;;;9.50;99.90;;;;;;4895958;29;20039;-84
2022/01/29 02:42:53;;;;;;;37.72;8.02;;;7.70;99.90;;;;;;4898490;29;20040;-84
2022/01/29 02:45:19;;;;;;;33.67;8.23;;;10.10;99.90;;;;;;4895618;29;20446;-84
2022/01/29 02:47:45;;;;;;;31.30;8.00;;;7.90;99.90;;;;;;4897813;29;20044;-84
2022/01/29 02:50:11;;;;;;;30.50;7.68;;;7.70;99.90;;;;;;4897469;29;20115;-84
2022/01/29 02:52:37;;;;;;;40.85;8.20;;;10.20;99.90;;;;;;4896114;29;20127;-84
2022/01/29 02:55:04;;;;;;;34.88;7.65;;;8.40;99.90;;;;;;4895988;29;20052;-84
2022/01/29 02:57:29;;;;;;;27.10;7.32;;;8.20;99.90;;;;;;4894560;29;20052;-84
2022/01/29 03:00:00;;;;;;;32.83;7.88;;;9.30;99.90;;;;;;4897869;29;20087;-85
2022/01/29 03:02:28;;;;;;;35.63;9.10;;;8.80;99.90;;;;;;4898181;29;20052;-85
2022/01/29 03:04:56;;;;;;;37.42;8.75;;;7.70;99.90;;;;;;4898376;29;20059;-84
2022/01/29 03:07:22;;;;;;;32.17;8.30;;;9.00;99.90;;;;;;4879881;29;20141;-84
2022/01/29 03:09:47;;;;;;;39.10;9.60;;;9.80;99.90;;;;;;4898030;29;20509;-84
2022/01/29 03:12:13;;;;;;;30.35;8.07;;;8.50;99.90;;;;;;4897463;29;20568;-84
2022/01/29 03:14:38;;;;;;;45.10;10.23;;;10.50;99.90;;;;;;4882253;29;20568;-84
2022/01/29 03:17:04;;;;;;;34.70;9.40;;;10.00;99.90;;;;;;4896879;29;20055;-84
2022/01/29 03:19:30;;;;;;;38.20;9.15;;;11.10;99.90;;;;;;4897441;29;20044;-84
2022/01/29 03:21:55;;;;;;;37.78;8.77;;;9.80;99.90;;;;;;4897243;29;20449;-85
2022/01/29 03:24:21;;;;;;;42.42;8.50;;;8.40;99.90;;;;;;4881640;29;20504;-85
2022/01/29 03:26:46;;;;;;;30.05;8.20;;;10.50;99.90;;;;;;4895137;29;20074;-85
2022/01/29 03:29:12;;;;;;;35.50;9.52;;;9.70;99.90;;;;;;4897469;29;20596;-85
2022/01/29 03:31:38;;;;;;;38.47;9.15;;;11.20;99.90;;;;;;4897336;29;20435;-85
2022/01/29 03:34:03;;;;;;;34.03;8.25;;;11.20;99.90;;;;;;4897044;29;20500;-84
2022/01/29 03:36:29;;;;;;;46.30;12.07;;;8.20;99.90;;;;;;4880198;29;20075;-85
2022/01/29 03:38:55;;;;;;;32.53;10.00;;;11.70;99.90;;;;;;4896941;29;20050;-84
2022/01/29 03:41:20;;;;;;;26.40;8.95;;;8.40;99.90;;;;;;4897168;29;20044;-85
2022/01/29 03:43:47;;;;;;;45.75;10.20;;;10.60;99.90;;;;;;4897329;29;20480;-84
2022/01/29 03:46:13;;;;;;;24.42;8.60;;;10.90;99.90;;;;;;4897679;29;20107;-84
2022/01/29 03:48:40;;;;;;;35.92;10.20;;;8.70;99.90;;;;;;4897333;29;20080;-85
2022/01/29 03:51:05;;;;;;;38.33;10.05;;;9.00;99.90;;;;;;4892410;29;20488;-84
2022/01/29 03:53:32;;;;;;;44.03;12.02;;;10.90;99.90;;;;;;4896556;29;20067;-85
2022/01/29 03:55:57;;;;;;;39.58;9.73;;;10.50;99.90;;;;;;4881688;29;20054;-84
2022/01/29 03:58:23;;;;;;;39.72;11.57;;;8.40;99.90;;;;;;4895390;29;20487;-85
2022/01/29 04:00:49;;;;;;;33.10;9.50;;;8.30;99.90;;;;;;4911470;29;20408;-84
2022/01/29 04:03:14;;;;;;;36.75;10.70;;;10.20;99.90;;;;;;4897123;29;20036;-85
2022/01/29 04:05:40;;;;;;;30.15;9.85;;;9.40;99.90;;;;;;4897412;29;20040;-84
2022/01/29 04:08:13;;;;;;;33.58;8.80;;;9.10;99.90;;;;;;4896767;29;20512;-85
2022/01/29 04:10:39;;;;;;;38.53;11.20;;;9.50;99.90;;;;;;4893376;29;20056;-84
2022/01/29 04:13:06;;;;;;;31.48;9.55;;;10.40;99.90;;;;;;4896796;29;20055;-85
2022/01/29 04:15:31;;;;;;;28.73;10.52;;;11.10;99.90;;;;;;4896511;29;20044;-84
2022/01/29 04:17:57;;;;;;;34.50;11.02;;;8.90;99.90;;;;;;4881716;29;20052;-84
2022/01/29 04:20:23;;;;;;;24.95;9.43;;;8.60;99.90;;;;;;4897132;29;20052;-84
2022/01/29 04:22:48;;;;;;;30.67;9.77;;;9.70;99.90;;;;;;4894753;29;20071;-84
2022/01/29 04:25:14;;;;;;;28.83;10.07;;;10.00;99.90;;;;;;4900237;29;20135;-84
2022/01/29 04:27:43;;;;;;;41.22;11.05;;;10.10;99.90;;;;;;4897257;29;20492;-84
2022/01/29 04:30:15;;;;;;;28.98;9.93;;;10.10;99.90;;;;;;4884833;29;20039;-84
2022/01/29 04:35:07;;;;;;;33.22;11.75;;;9.20;99.90;;;;;;4900624;29;20499;-84
2022/01/29 04:37:33;;;;;;;32.00;12.30;;;9.40;99.90;;;;;;4900652;29;20116;-85
2022/01/29 04:39:58;;;;;;;34.15;11.77;;;10.30;99.90;;;;;;4883498;29;20572;-84
2022/01/29 04:42:24;;;;;;;43.70;11.30;;;9.20;99.90;;;;;;4900518;29;20077;-85
2022/01/29 04:44:49;;;;;;;36.90;12.60;;;10.50;99.90;;;;;;4899913;29;20382;-85
2022/01/29 04:47:15;;;;;;;47.33;12.27;;;8.30;99.90;;;;;;4899280;29;20076;-85
2022/01/29 04:49:41;;;;;;;24.17;8.70;;;9.50;99.90;;;;;;4900114;29;20052;-85
2022/01/29 04:52:06;;;;;;;40.70;11.73;;;9.30;99.90;;;;;;4899736;29;20079;-85
2022/01/29 04:54:33;;;;;;;32.47;10.48;;;8.90;99.90;;;;;;4915813;29;20068;-85
2022/01/29 04:56:58;;;;;;;35.80;11.77;;;10.70;99.90;;;;;;4899859;29;20040;-84
2022/01/29 04:59:24;;;;;;;32.80;11.32;;;10.10;99.90;;;;;;4900323;29;20044;-84
2022/01/29 05:01:50;;;;;;;43.50;12.68;;;8.30;99.90;;;;;;4900429;29;20047;-85
2022/01/29 05:04:15;;;;;;;38.17;12.00;;;10.10;99.90;;;;;;4900429;29;20385;-85
2022/01/29 05:06:41;;;;;;;35.22;11.52;;;9.60;99.90;;;;;;4916666;29;20128;-85
2022/01/29 05:09:09;;;;;;;29.25;10.93;;;10.00;99.90;;;;;;4896477;29;20043;-84
2022/01/29 05:11:35;;;;;;;32.78;10.65;;;10.40;99.90;;;;;;4899879;29;20048;-85
2022/01/29 05:14:02;;;;;;;38.97;11.80;;;11.80;99.90;;;;;;4899575;29;20107;-84
2022/01/29 05:16:53;;;;;;;37.15;12.38;;;11.00;99.90;;;;;;4899842;29;20404;-84
2022/01/29 05:27:31;;;;;;;31.92;10.77;;;8.70;99.90;;;;;;4899913;29;20079;-84
2022/01/29 05:29:57;;;;;;;31.90;12.35;;;11.30;99.90;;;;;;4899525;29;20083;-84
2022/01/29 05:32:22;;;;;;;43.47;12.57;;;9.70;99.90;;;;;;4881092;29;20044;-84
2022/01/29 05:34:48;;;;;;;31.15;12.80;;;10.10;99.90;;;;;;4899347;29;20149;-84
2022/01/29 05:37:14;;;;;;;34.50;11.80;;;10.40;99.90;;;;;;4896657;29;20091;-85
2022/01/29 05:39:40;;;;;;;24.52;10.75;;;10.20;99.90;;;;;;4899684;29;20043;-84
2022/01/29 05:42:06;;;;;;;29.98;11.30;;;8.70;99.90;;;;;;4899318;29;20485;-84
2022/01/29 05:44:31;;;;;;;30.02;11.10;;;9.20;99.90;;;;;;4899426;29;20420;-84
2022/01/29 05:46:57;;;;;;;26.58;10.80;;;8.90;99.90;;;;;;4899328;29;20036;-84
2022/01/29 05:49:23;;;;;;;42.85;12.43;;;9.30;99.90;;;;;;4898672;29;20135;-84
2022/01/29 05:51:49;;;;;;;37.83;12.40;;;9.20;99.90;;;;;;4883925;29;20059;-85
2022/01/29 05:54:14;;;;;;;31.45;12.77;;;10.80;99.90;;;;;;4898783;29;20044;-85
2022/01/29 05:56:40;;;;;;;28.20;11.63;;;10.20;99.90;;;;;;4899137;29;20052;-84
2022/01/29 05:59:06;;;;;;;35.88;11.48;;;10.30;99.90;;;;;;4898909;29;20436;-85
2022/01/29 06:01:31;;;;;;;34.75;12.27;;;8.90;99.90;;;;;;4899094;29;20456;-84
2022/01/29 06:03:57;;;;;;;28.05;9.82;;;11.90;99.90;;;;;;4898953;29;20387;-84
2022/01/29 06:06:23;;;;;;;33.97;10.55;;;10.20;99.90;;;;;;4898966;29;20048;-84
2022/01/29 06:08:48;;;;;;;24.23;9.18;;;11.00;99.90;;;;;;4898787;29;20059;-84
2022/01/29 06:11:14;;;;;;;28.98;8.57;;;11.90;99.90;;;;;;4898726;29;20044;-84
2022/01/29 06:13:40;;;;;;;30.88;10.35;;;9.30;99.90;;;;;;4898513;29;20044;-84
2022/01/29 06:16:05;;;;;;;37.55;10.55;;;9.90;99.90;;;;;;4898697;29;20076;-84
2022/01/29 06:18:32;;;;;;;40.30;10.88;;;11.50;99.90;;;;;;4898603;29;20079;-84
2022/01/29 06:21:03;;;;;;;29.73;9.25;;;8.20;99.90;;;;;;4898520;29;20060;-84
2022/01/29 06:23:31;;;;;;;30.23;9.50;;;9.10;99.90;;;;;;4895734;29;20049;-84
2022/01/29 06:25:59;;;;;;;24.90;8.73;;;9.70;99.90;;;;;;4898435;29;20060;-84
2022/01/29 06:28:24;;;;;;;30.70;9.75;;;9.60;99.90;;;;;;4898852;29;20044;-84
2022/01/29 06:30:50;;;;;;;24.20;8.18;;;8.10;99.90;;;;;;4905427;29;20111;-85
2022/01/29 06:33:16;;;;;;;31.77;9.60;;;9.80;99.90;;;;;;4879435;29;20102;-84
2022/01/29 06:35:43;;;;;;;30.38;8.55;;;8.00;99.90;;;;;;4898677;29;20072;-84
2022/01/29 06:38:11;;;;;;;28.55;8.93;;;9.00;99.90;;;;;;4896974;29;20509;-84
2022/01/29 06:40:38;;;;;;;36.72;10.10;;;10.80;99.90;;;;;;4894303;29;20501;-85
2022/01/29 06:43:04;;;;;;;25.63;9.15;;;9.00;99.90;;;;;;4897208;29;20055;-84
2022/01/29 06:45:35;;;;;;;35.83;8.52;;;9.90;99.90;;;;;;4896483;29;20083;-84
2022/01/29 06:48:01;;;;;;;32.10;8.45;;;8.10;99.90;;;;;;4896179;29;20051;-85
2022/01/29 06:50:27;;;;;;;25.20;7.72;;;9.80;99.90;;;;;;4897738;29;20123;-84
2022/01/29 06:52:53;;;;;;;22.70;7.53;;;9.00;99.90;;;;;;4897311;29;20305;-84
2022/01/29 06:55:19;;;;;;;19.42;7.72;;;9.20;99.90;;;;;;4897169;29;20095;-85
2022/01/29 06:57:47;;;;;;;26.83;7.97;;;9.10;99.90;;;;;;4896855;29;20052;-84
2022/01/29 07:00:13;;;;;;;26.80;7.32;;;7.60;99.90;;;;;;4896160;29;20321;-84
2022/01/29 07:02:39;;;;;;;21.80;6.68;;;7.90;99.90;;;;;;4895826;29;20059;-84
2022/01/29 07:05:06;;;;;;;21.30;6.45;;;9.70;99.90;;;;;;4897214;29;20052;-84
2022/01/29 07:07:32;;;;;;;25.80;7.60;;;7.70;99.90;;;;;;4898362;29;20186;-84
2022/01/29 07:09:58;;;;;;;17.92;6.22;;;8.60;99.90;;;;;;4894545;29;20123;-84
2022/01/29 07:12:25;;;;;;;33.65;8.30;;;9.60;99.90;;;;;;4897706;29;20056;-84
2022/01/29 07:14:50;;;;;;;26.02;7.10;;;9.40;99.90;;;;;;4896947;29;20092;-84
2022/01/29 07:17:18;;;;;;;25.15;7.20;;;9.60;99.90;;;;;;4896506;29;20048;-84
2022/01/29 07:19:44;;;;;;;21.38;5.25;;;9.90;99.90;;;;;;4897092;29;20052;-84
2022/01/29 07:22:11;;;;;;;16.00;6.45;;;10.00;99.90;;;;;;4896296;29;20055;-84
2022/01/29 07:24:37;;;;;;;29.05;7.35;;;8.30;99.90;;;;;;4895903;29;20050;-84
2022/01/29 07:27:04;;;;;;;23.73;6.00;;;9.80;99.90;;;;;;4896748;29;20052;-84
2022/01/29 07:29:30;;;;;;;24.17;6.70;;;9.20;99.90;;;;;;4896207;29;20071;-84
2022/01/29 07:31:56;;;;;;;21.23;7.10;;;8.50;99.90;;;;;;4881295;29;20040;-84
2022/01/29 07:34:23;;;;;;;22.20;6.20;;;8.10;99.90;;;;;;4895445;29;20056;-84
2022/01/29 07:36:50;;;;;;;24.65;7.05;;;11.20;99.90;;;;;;4894478;29;20111;-85
2022/01/29 07:39:16;;;;;;;27.10;7.40;;;7.80;99.90;;;;;;4896532;29;20047;-84
2022/01/29 07:41:42;;;;;;;32.00;7.50;;;9.00;99.90;;;;;;4896913;29;20055;-84
2022/01/29 07:44:08;;;;;;;21.08;7.10;;;9.60;99.90;;;;;;4896313;29;20044;-84
2022/01/29 07:46:34;;;;;;;37.20;7.60;;;11.60;99.90;;;;;;4893639;29;20151;-84
2022/01/29 07:48:59;;;;;;;19.27;6.15;;;8.60;99.90;;;;;;4894645;29;20052;-84
2022/01/29 07:51:25;;;;;;;20.20;6.05;;;9.60;99.90;;;;;;4894061;29;20040;-84
2022/01/29 07:53:51;;;;;;;25.33;7.63;;;11.70;99.90;;;;;;4878649;29;20094;-84
2022/01/29 07:56:16;;;;;;;26.80;6.65;;;10.30;99.90;;;;;;4893303;29;20076;-84
2022/01/29 07:58:42;;;;;;;21.58;6.35;;;11.70;99.90;;;;;;4896984;29;20048;-84
2022/01/29 08:01:08;;;;;;;21.70;6.13;;;8.40;99.90;;;;;;4892541;29;20041;-84
2022/01/29 08:03:33;;;;;;;16.17;5.97;;;8.20;99.90;;;;;;4896663;29;20131;-84
2022/01/29 08:05:59;;;;;;;16.85;5.60;;;8.20;99.90;;;;;;4878732;29;20185;-84
2022/01/29 08:08:25;;;;;;;23.85;5.07;;;11.00;99.90;;;;;;4881535;29;20052;-84
2022/01/29 08:10:52;;;;;;;16.17;5.00;;;10.60;99.90;;;;;;4881950;29;20047;-84
2022/01/29 08:13:18;;;;;;;23.02;5.25;;;7.80;99.90;;;;;;4896883;29;20059;-84
2022/01/29 08:15:44;;;;;;;30.52;6.30;;;10.40;99.90;;;;;;4880825;29;20044;-84
2022/01/29 08:18:10;;;;;;;25.25;5.97;;;11.60;99.90;;;;;;4894717;29;20137;-84
2022/01/29 08:20:35;;;;;;;26.88;5.60;;;8.00;99.90;;;;;;4897425;29;20051;-85
2022/01/29 08:23:07;;;;;;;23.70;6.10;;;9.70;99.90;;;;;;4896308;29;20540;-84
2022/01/29 08:25:33;;;;;;;26.38;5.50;;;10.00;99.90;;;;;;4881031;29;20058;-85
2022/01/29 08:27:58;;;;;;;26.75;6.45;;;9.20;99.90;;;;;;4893639;29;20122;-85
2022/01/29 08:30:24;;;;;;;23.33;6.05;;;9.90;99.90;;;;;;4896734;29;20128;-85
2022/01/29 08:32:50;;;;;;;25.10;5.35;;;9.40;99.90;;;;;;4896362;29;20096;-85
2022/01/29 08:35:16;;;;;;;22.73;5.15;;;9.50;99.90;;;;;;4896370;29;20763;-85
2022/01/29 08:37:42;;;;;;;21.30;5.53;;;9.40;99.90;;;;;;4886656;29;20053;-85
2022/01/29 08:40:08;;;;;;;16.65;5.13;;;8.60;99.90;;;;;;4881071;29;20051;-85
2022/01/29 08:42:34;;;;;;;24.55;5.80;;;7.80;99.90;;;;;;4895445;29;20150;-85
2022/01/29 08:45:01;;;;;;;26.20;5.95;;;11.40;99.90;;;;;;4896964;29;20067;-86
2022/01/29 08:47:26;;;;;;;19.08;5.15;;;9.20;99.90;;;;;;4896925;29;20044;-85
2022/01/29 08:49:52;;;;;;;19.38;5.10;;;10.10;99.90;;;;;;4896847;29;20511;-86
2022/01/29 08:52:18;;;;;;;14.43;4.32;;;10.10;99.90;;;;;;4881719;29;20040;-83
2022/01/29 08:54:44;;;;;;;25.77;5.85;;;10.00;99.90;;;;;;4895993;29;20079;-86
2022/01/29 08:57:09;;;;;;;25.58;5.10;;;10.10;99.90;;;;;;4896545;29;20127;-87
2022/01/29 08:59:35;;;;;;;18.58;4.80;;;9.20;99.90;;;;;;4895139;29;20040;-86
2022/01/29 09:02:01;;;;;;;23.95;5.53;;;10.00;99.90;;;;;;4892877;29;20513;-85
2022/01/29 09:04:27;;;;;;;14.73;3.92;;;9.80;99.90;;;;;;4894219;29;20123;-85
2022/01/29 09:06:53;;;;;;;19.55;4.78;;;8.50;99.90;;;;;;4893990;29;20484;-85
2022/01/29 09:09:23;;;;;;;22.58;5.32;;;8.10;99.90;;;;;;4896436;29;20055;-85
2022/01/29 09:11:51;;;;;;;23.52;4.30;;;9.80;99.90;;;;;;4899672;29;20048;-85
2022/01/29 09:14:16;;;;;;;19.27;4.55;;;11.10;99.90;;;;;;4896873;29;20040;-85
2022/01/29 09:16:42;;;;;;;21.50;3.50;;;8.60;99.90;;;;;;4900481;29;20496;-85
2022/01/29 09:19:08;;;;;;;19.95;4.57;;;10.50;99.90;;;;;;4899922;29;20404;-86
2022/01/29 09:21:34;;;;;;;15.65;3.88;;;10.40;99.90;;;;;;4884390;29;20063;-86
2022/01/29 09:23:59;;;;;;;22.08;4.57;;;8.60;99.90;;;;;;4879031;29;20045;-86
2022/01/29 09:26:25;;;;;;;18.13;3.50;;;8.70;99.90;;;;;;4884754;29;20127;-86
2022/01/29 09:28:51;;;;;;;24.98;4.25;;;8.70;99.90;;;;;;4900035;29;20044;-85
2022/01/29 09:31:17;;;;;;;30.77;4.47;;;11.10;99.90;;;;;;4899548;29;20389;-86
2022/01/29 09:33:42;;;;;;;17.63;3.80;;;10.00;99.90;;;;;;4897373;29;20063;-85
2022/01/29 09:36:08;;;;;;;10.15;3.45;;;9.70;99.90;;;;;;4916825;29;20064;-85
2022/01/29 09:38:34;;;;;;;22.92;4.05;;;8.70;99.90;;;;;;4900005;29;20098;-85
2022/01/29 09:41:01;;;;;;;19.80;4.03;;;9.20;99.90;;;;;;4917099;29;20052;-85
2022/01/29 09:43:30;;;;;;;13.52;3.88;;;8.70;99.90;;;;;;4900051;29;20465;-85
2022/01/29 09:45:57;;;;;;;16.13;3.42;;;8.80;99.90;;;;;;4883974;29;20134;-85
2022/01/29 09:48:24;;;;;;;28.55;4.35;;;10.30;99.90;;;;;;4899333;29;20095;-85
2022/01/29 09:50:52;;;;;;;19.30;3.75;;;9.20;99.90;;;;;;4915178;29;20087;-85
2022/01/29 09:53:18;;;;;;;26.02;3.80;;;9.00;99.90;;;;;;4899149;29;20040;-86
2022/01/29 09:55:44;;;;;;;21.15;3.72;;;11.80;99.90;;;;;;4899426;29;20099;-86
2022/01/29 09:58:10;;;;;;;20.27;4.20;;;9.40;99.90;;;;;;4899435;29;20165;-86
2022/01/29 10:00:37;;;;;;;26.63;4.53;;;9.60;99.90;;;;;;4899312;29;20152;-86
2022/01/29 10:03:10;;;;;;;26.52;4.72;;;9.80;99.90;;;;;;4897640;29;20425;-85
2022/01/29 10:05:37;;;;;;;19.88;3.47;;;11.10;99.90;;;;;;4898395;29;20040;-86
2022/01/29 10:08:03;;;;;;;22.58;4.07;;;11.80;99.90;;;;;;4898422;29;20040;-86
2022/01/29 10:10:29;;;;;;;22.25;4.15;;;9.80;99.90;;;;;;4899402;29;20111;-85
2022/01/29 10:12:55;;;;;;;22.77;4.43;;;10.80;99.90;;;;;;4898628;29;20520;-86
2022/01/29 10:15:22;;;;;;;13.52;3.13;;;9.80;99.90;;;;;;4899146;29;20089;-86
2022/01/29 10:17:50;;;;;;;25.50;4.43;;;10.30;99.90;;;;;;4899013;29;20129;-85
2022/01/29 10:20:22;;;;;;;25.33;4.47;;;9.40;99.90;;;;;;4901703;29;20526;-85
2022/01/29 10:22:52;;;;;;;28.67;4.60;;;10.60;99.90;;;;;;4897522;29;20048;-85
2022/01/29 10:25:21;;;;;;;15.32;3.45;;;9.70;99.90;;;;;;4895218;29;20044;-85
2022/01/29 10:28:11;;;;;;;29.75;4.60;;;9.70;99.90;;;;;;4898615;29;20258;-86
2022/01/29 10:30:47;;;;;;;14.82;3.45;;;9.80;99.90;;;;;;4898236;29;20131;-86
2022/01/29 10:33:18;;;;;;;;;;;11.40;99.90;;;;;;4883550;29;20048;-86
2022/01/29 10:35:45;;;;;;;25.65;4.35;;;11.10;99.90;;;;;;4912060;29;19935;-86
2022/01/29 10:38:10;;;;;;;21.50;3.95;;;11.70;99.90;;;;;;4884412;29;20052;-86
2022/01/29 10:40:38;;;;;;;18.65;3.78;;;11.20;99.90;;;;;;4879834;29;20051;-86
2022/01/29 10:43:05;;;;;;;24.67;4.68;;;9.70;99.90;;;;;;4883215;29;20052;-86
2022/01/29 10:45:34;;;;;;;27.65;4.68;;;10.00;99.90;;;;;;4882283;29;20044;-86
2022/01/29 10:48:00;;;;;;;24.33;4.30;;;10.00;99.90;;;;;;4897936;29;20051;-86
2022/01/29 10:50:27;;;;;;;20.17;4.22;;;10.30;99.90;;;;;;4896084;29;20040;-86
2022/01/29 10:52:53;;;;;;;19.63;3.70;;;9.90;99.90;;;;;;4896568;29;20651;-86
2022/01/29 10:55:19;;;;;;;20.20;3.53;;;9.60;99.90;;;;;;4882772;29;20535;-86
2022/01/29 10:57:47;;;;;;;15.07;3.78;;;10.70;99.90;;;;;;4898587;29;20044;-86
2022/01/29 11:00:21;;;;;;;17.23;2.95;;;11.10;99.90;;;;;;4894418;29;20574;-86
2022/01/29 11:02:48;;;;;;;21.17;3.50;;;11.20;99.90;;;;;;4897447;29;20531;-86
2022/01/29 11:05:15;;;;;;;20.50;4.13;;;11.40;99.90;;;;;;4897537;29;20516;-86
2022/01/29 11:07:46;;;;;;;19.98;3.15;;;10.20;99.90;;;;;;4895241;29;20075;-85
2022/01/29 11:10:12;;;;;;;19.20;3.25;;;11.70;99.90;;;;;;4897749;29;20129;-85
2022/01/29 11:12:43;;;;;;;16.30;3.10;;;10.50;99.90;;;;;;4896314;29;20057;-85
2022/01/29 11:15:09;;;;;;;12.60;3.15;;;10.10;99.90;;;;;;4897472;29;20139;-86
2022/01/29 11:17:34;;;;;;;16.80;3.00;;;10.00;99.90;;;;;;4882173;29;20044;-86
2022/01/29 11:20:01;;;;;;;20.00;3.83;;;10.60;99.90;;;;;;4894342;29;20477;-86
2022/01/29 11:22:33;;;;;;;20.27;3.55;;;9.90;99.90;;;;;;4897911;29;20756;-86
2022/01/29 11:25:02;;;;;;;19.48;3.22;;;11.40;99.90;;;;;;4896608;29;20086;-86
2022/01/29 11:27:30;;;;;;;14.98;3.00;;;10.60;99.90;;;;;;4897585;29;20081;-85
2022/01/29 11:30:01;;;;;;;14.65;2.60;;;11.20;99.90;;;;;;4897062;29;20078;-85
2022/01/29 11:32:29;;;;;;;18.00;3.13;;;11.20;99.90;;;;;;4897349;29;20040;-86
2022/01/29 11:35:11;;;;;;;15.43;3.42;;;10.90;99.90;;;;;;4912697;29;20122;-85
2022/01/29 11:37:41;;;;;;;19.75;3.03;;;10.70;99.90;;;;;;4896541;29;20040;-85
2022/01/29 11:40:15;;;;;;;22.05;3.03;;;10.70;99.90;;;;;;4896562;29;20048;-86
2022/01/29 11:42:54;;;;;;;20.23;3.50;;;10.30;99.90;;;;;;4897290;29;20079;-85
2022/01/29 11:45:50;;;;;;;23.35;4.00;;;10.70;99.90;;;;;;4897839;29;20043;-85
2022/01/29 11:48:20;;;;;;;27.30;3.95;;;11.00;99.90;;;;;;4895997;29;20083;-86
2022/01/29 11:50:47;;;;;;;17.55;4.13;;;10.10;99.90;;;;;;4897724;29;20511;-86
2022/01/29 11:53:15;;;;;;;23.45;3.75;;;10.20;99.90;;;;;;4897347;29;20044;-86
2022/01/29 11:55:44;;;;;;;15.95;3.17;;;11.30;99.90;;;;;;4898069;29;20412;-86
2022/01/29 11:58:17;;;;;;;18.65;3.80;;;11.40;99.90;;;;;;4897623;29;20043;-86
2022/01/29 12:00:46;;;;;;;19.10;3.78;;;10.30;99.90;;;;;;4897346;29;20512;-86
2022/01/29 12:03:34;;;;;;;20.90;4.45;;;10.80;99.90;;;;;;4881516;29;20056;-86
2022/01/29 12:06:08;;;;;;;21.75;3.80;;;10.90;99.90;;;;;;4896860;29;20056;-86
2022/01/29 12:08:39;;;;;;;21.38;4.07;;;11.30;99.90;;;;;;4896646;29;20561;-85
2022/01/29 12:11:11;;;;;;;26.20;4.93;;;11.90;99.90;;;;;;4897294;29;20048;-86
2022/01/29 12:13:37;;;;;;;30.38;4.72;;;11.00;99.90;;;;;;4896873;29;20040;-86
2022/01/29 12:16:05;;;;;;;16.83;3.50;;;11.80;99.90;;;;;;4896986;29;20422;-86
2022/01/29 12:18:34;;;;;;;25.27;4.07;;;10.70;99.90;;;;;;4895474;29;20079;-85
2022/01/29 12:21:01;;;;;;;21.73;3.67;;;10.80;99.90;;;;;;4896951;29;20060;-85
2022/01/29 12:23:27;;;;;;;26.88;4.15;;;11.60;99.90;;;;;;4896186;29;20044;-85
2022/01/29 12:25:54;;;;;;;23.85;4.22;;;12.60;99.90;;;;;;4896899;29;20048;-85
2022/01/29 12:28:20;;;;;;;26.23;4.40;;;10.50;99.90;;;;;;4896858;29;20044;-86
2022/01/29 12:30:46;;;;;;;15.18;3.80;;;10.70;99.90;;;;;;4897372;29;20055;-86
2022/01/29 12:33:14;;;;;;;22.80;4.25;;;10.50;99.90;;;;;;4895550;29;20036;-86
2022/01/29 12:35:50;;;;;;;21.83;3.75;;;11.40;99.90;;;;;;4896271;29;20060;-86
2022/01/29 12:38:18;;;;;;;33.53;4.97;;;10.60;99.90;;;;;;4881330;29;20040;-86
2022/01/29 12:40:55;;;;;;;22.85;4.28;;;10.50;99.90;;;;;;4896845;29;20655;-86
2022/01/29 12:43:20;;;;;;;;;;;10.30;99.90;;;;;;4881586;29;20401;-85
2022/01/29 12:45:47;;;;;;;34.87;4.97;;;10.50;99.90;;;;;;4898991;29;19964;-86
2022/01/29 12:48:13;;;;;;;23.33;4.38;;;10.90;99.90;;;;;;4899562;29;20055;-86
2022/01/29 12:50:41;;;;;;;31.83;4.85;;;9.90;99.90;;;;;;4900645;29;20063;-86